logo
Rechercher aéroport 
image banner adimage banner adimage banner ad
image banner ad

SKDE - El Diamante

Situé à , Colombia

ICAO - , IATA -

Données fournies par Airmate  

Information générale

Coordonnées: N4°49'25" W75°50'43"
Élévation : 3910 feet MSL.
 
Voir autres Aéroports à Risaralda

Données opérationnelles

Special qualification required
Heure actuelle UTC:
Heure actuelle locale:
Météo à : SKPE - Pereira-Matecana ( 12 km )
METAR: SKPE 242000Z VRB02KT 9999 FEW020 SCT080 26/22 Q1014
TAF: TAF SKPE 241630Z 2418/2518 31006KT 9999 SCT017 TEMPO 2419/2422 SCT017TCU TEMPO 2422/2502 TSRA SCT017CB BKN080 BECMG 2509/2511 3000 BCFG BKN010 BECMG 2515/2517 9999 NSW SCT017 TX27/2420Z TN19/2510Z
Voir NOTAMs / SUP AIP / TFR affectant cet aéroport [VIEW]
Fréquences de communication: [VIEW]

Pistes:

Coordonnées de l'aéroport

Adresse: Colombia

Vue satellite de SKDE